Time;durP1;ratioP1;P1;durP2;ratioP2;P2;SDS_P1;SDS_P2;PMS_P1;PMS_P2;Temp;Humidity;BMP_temperature;BMP_pressure;BME280_temperature;BME280_humidity;BME280_pressure;Samples;Min_cycle;Max_cycle;Signal;HPM_P1;HPM_P2
2023/10/27 00:01:36;;;;;;;;;;;;;;;17.16;60.24;97406.19;10329892;28;869;-78
2023/10/27 00:06:32;;;;;;;;;;;;;;;17.16;60.10;97403.56;10329682;28;972;-79
2023/10/27 00:11:28;;;;;;;;;;;;;;;17.15;60.36;97398.41;10328614;28;1956;-78
2023/10/27 00:16:24;;;;;;;;;;;;;;;17.14;60.30;97399.38;10329494;28;865;-78
2023/10/27 00:21:20;;;;;;;;;;;;;;;17.12;60.27;97394.22;10328647;28;858;-78
2023/10/27 00:26:16;;;;;;;;;;;;;;;17.12;60.27;97404.75;10328871;28;900;-78
2023/10/27 00:31:12;;;;;;;;;;;;;;;17.10;60.40;97393.50;10327781;28;1267;-78
2023/10/27 00:36:08;;;;;;;;;;;;;;;17.09;60.34;97395.31;10327795;28;1906;-78
2023/10/27 00:41:04;;;;;;;;;;;;;;;17.09;60.42;97405.00;10327033;28;896;-78
2023/10/27 00:45:59;;;;;;;;;;;;;;;17.06;60.36;97400.81;10327841;28;842;-78
2023/10/27 00:50:55;;;;;;;;;;;;;;;17.06;60.50;97392.91;10327362;28;874;-78
2023/10/27 00:55:51;;;;;;;;;;;;;;;17.05;60.41;97395.66;10327043;28;1901;-78
2023/10/27 01:00:47;;;;;;;;;;;;;;;17.04;60.46;97396.63;10326935;28;787;-78
2023/10/27 01:05:43;;;;;;;;;;;;;;;17.03;60.23;97390.53;10326743;28;858;-78
2023/10/27 01:10:39;;;;;;;;;;;;;;;17.01;60.45;97386.34;10326441;28;834;-78
2023/10/27 01:15:35;;;;;;;;;;;;;;;17.01;60.34;97383.69;10326319;28;1895;-78
2023/10/27 01:20:31;;;;;;;;;;;;;;;17.00;60.48;97382.00;10326242;28;894;-78
2023/10/27 01:25:26;;;;;;;;;;;;;;;16.99;60.38;97383.81;10326127;28;767;-78
2023/10/27 01:30:22;;;;;;;;;;;;;;;16.98;60.54;97382.16;10325497;28;1204;-78
2023/10/27 01:35:18;;;;;;;;;;;;;;;16.98;60.41;97391.84;10325752;28;1979;-78
2023/10/27 01:40:14;;;;;;;;;;;;;;;16.97;60.56;97390.16;10326278;28;883;-78
2023/10/27 01:45:11;;;;;;;;;;;;;;;16.95;60.39;97384.16;10326305;28;822;-78
2023/10/27 01:50:06;;;;;;;;;;;;;;;16.93;60.31;97373.78;10325449;28;917;-78
2023/10/27 01:55:02;;;;;;;;;;;;;;;16.94;60.47;97374.59;10325934;28;1955;-78
2023/10/27 01:59:58;;;;;;;;;;;;;;;16.93;60.25;97378.19;10325275;28;889;-78
2023/10/27 02:04:54;;;;;;;;;;;;;;;16.91;60.53;97366.94;10325410;28;866;-78
2023/10/27 02:09:50;;;;;;;;;;;;;;;16.91;60.46;97364.31;10324951;28;973;-78
2023/10/27 02:14:46;;;;;;;;;;;;;;;16.89;60.41;97367.06;10324957;28;1969;-78
2023/10/27 02:19:42;;;;;;;;;;;;;;;16.88;60.48;97368.03;10325805;28;854;-78
2023/10/27 02:24:38;;;;;;;;;;;;;;;16.87;60.52;97358.44;10324854;28;798;-78
2023/10/27 02:29:34;;;;;;;;;;;;;;;16.86;60.38;97351.50;10324644;28;1259;-78
2023/10/27 02:34:30;;;;;;;;;;;;;;;16.86;60.43;97354.16;10324878;28;1975;-78
2023/10/27 02:39:25;;;;;;;;;;;;;;;16.84;60.53;97354.25;10324514;28;984;-78
2023/10/27 02:44:21;;;;;;;;;;;;;;;16.84;60.40;97348.16;10329951;28;909;-78
2023/10/27 02:49:17;;;;;;;;;;;;;;;16.83;60.31;97346.50;10332366;28;800;-78
2023/10/27 02:54:13;;;;;;;;;;;;;;;16.82;60.53;97340.41;10332063;28;1894;-78
2023/10/27 02:59:09;;;;;;;;;;;;;;;16.81;60.54;97332.63;10331854;28;932;-78
2023/10/27 03:04:05;;;;;;;;;;;;;;;16.80;60.35;97325.69;10331528;28;766;-78
2023/10/27 03:09:01;;;;;;;;;;;;;;;16.79;60.30;97319.59;10331895;28;802;-78
2023/10/27 03:13:57;;;;;;;;;;;;;;;16.79;60.57;97316.97;10331492;28;1956;-78
2023/10/27 03:18:53;;;;;;;;;;;;;;;16.78;60.56;97312.63;10330967;28;948;-78
2023/10/27 03:23:49;;;;;;;;;;;;;;;16.76;60.62;97306.63;10331315;28;775;-78
2023/10/27 03:28:45;;;;;;;;;;;;;;;16.76;60.47;97304.00;10331202;28;758;-78
2023/10/27 03:33:41;;;;;;;;;;;;;;;16.76;60.58;97301.38;10330943;28;1993;-78
2023/10/27 03:38:37;;;;;;;;;;;;;;;16.74;60.37;97290.16;10330241;28;794;-78
2023/10/27 03:43:34;;;;;;;;;;;;;;;16.74;60.33;97287.53;10329926;28;834;-78
2023/10/27 03:48:30;;;;;;;;;;;;;;;16.73;60.34;97296.34;10330414;28;854;-79
2023/10/27 03:53:26;;;;;;;;;;;;;;;16.71;60.40;97287.72;10328859;28;1902;-78
2023/10/27 03:58:22;;;;;;;;;;;;;;;16.73;60.49;97298.97;10328882;28;901;-78
2023/10/27 04:03:18;;;;;;;;;;;;;;;16.70;60.51;97290.50;10329280;28;1029;-78
2023/10/27 04:08:13;;;;;;;;;;;;;;;16.70;60.35;97283.44;10329664;28;779;-78
2023/10/27 04:13:09;;;;;;;;;;;;;;;16.69;60.59;97284.41;10328961;28;1964;-78
2023/10/27 04:18:05;;;;;;;;;;;;;;;16.70;60.48;97283.44;10329012;28;877;-78
2023/10/27 04:23:01;;;;;;;;;;;;;;;16.76;60.40;97275.06;10329075;28;928;-78
2023/10/27 04:27:57;;;;;;;;;;;;;;;16.82;60.01;97273.78;10327880;28;806;-78
2023/10/27 04:32:55;;;;;;;;;;;;;;;16.85;59.96;97279.66;10328292;28;1981;-78
2023/10/27 04:37:51;;;;;;;;;;;;;;;16.89;59.95;97274.13;10327785;28;921;-78
2023/10/27 04:42:47;;;;;;;;;;;;;;;16.92;59.97;97279.97;10326987;28;1179;-78
2023/10/27 04:47:43;;;;;;;;;;;;;;;16.99;59.74;97283.81;10328277;28;822;-78
2023/10/27 04:52:39;;;;;;;;;;;;;;;17.04;59.57;97279.03;10327189;28;1965;-78
2023/10/27 04:57:36;;;;;;;;;;;;;;;17.08;59.62;97277.84;10327039;28;881;-78
2023/10/27 05:02:32;;;;;;;;;;;;;;;17.13;59.28;97274.81;10326886;28;857;-78
2023/10/27 05:07:28;;;;;;;;;;;;;;;17.15;59.38;97279.97;10326663;28;817;-78
2023/10/27 05:12:24;;;;;;;;;;;;;;;17.21;59.37;97276.81;10326701;28;1951;-78
2023/10/27 05:17:20;;;;;;;;;;;;;;;17.22;59.24;97268.81;10326317;28;842;-78
2023/10/27 05:22:16;;;;;;;;;;;;;;;17.22;59.35;97273.25;10326834;28;888;-79
2023/10/27 05:27:11;;;;;;;;;;;;;;;17.25;59.14;97273.84;10326030;28;957;-79
2023/10/27 05:32:07;;;;;;;;;;;;;;;17.27;59.25;97271.91;10325545;28;1909;-79
2023/10/27 05:37:04;;;;;;;;;;;;;;;17.28;59.07;97273.59;10326358;28;1128;-79
2023/10/27 05:42:00;;;;;;;;;;;;;;;17.28;59.22;97267.50;10325633;28;774;-74
2023/10/27 05:46:58;;;;;;;;;;;;;;;17.33;59.28;97291.66;10325596;28;811;-78
2023/10/27 05:51:54;;;;;;;;;;;;;;;17.54;58.84;97273.28;10325745;28;1981;-74
2023/10/27 05:56:50;;;;;;;;;;;;;;;17.60;58.96;97272.75;10301081;28;1042;-72
2023/10/27 06:01:48;;;;;;;;;;;;;;;17.67;59.08;97273.94;10282037;28;1119;-71
2023/10/27 06:06:44;;;;;;;;;;;;;;;17.68;59.25;97280.91;10284184;28;881;-73
2023/10/27 06:11:40;;;;;;;;;;;;;;;17.69;59.19;97281.72;10284285;28;1886;-71
2023/10/27 06:16:36;;;;;;;;;;;;;;;17.67;59.21;97284.47;10285559;28;914;-72
2023/10/27 06:21:32;;;;;;;;;;;;;;;17.66;59.57;97276.72;10292516;28;760;-71
2023/10/27 06:26:27;;;;;;;;;;;;;;;17.62;59.46;97291.91;10292198;28;883;-71
2023/10/27 06:31:23;;;;;;;;;;;;;;;17.60;59.65;97293.00;10292786;28;1150;-71
2023/10/27 06:36:19;;;;;;;;;;;;;;;17.61;59.62;97295.53;10292349;28;1894;-71
2023/10/27 06:41:15;;;;;;;;;;;;;;;17.62;59.86;97286.66;10291308;28;779;-71
2023/10/27 06:46:11;;;;;;;;;;;;;;;17.66;59.58;97292.53;10291584;28;875;-79
2023/10/27 06:51:08;;;;;;;;;;;;;;;17.68;59.65;97295.84;10291362;28;834;-71
2023/10/27 06:56:04;;;;;;;;;;;;;;;17.67;59.62;97294.19;10291608;28;1955;-70
2023/10/27 07:00:59;;;;;;;;;;;;;;;17.66;59.57;97298.63;10290911;28;743;-71
2023/10/27 07:05:55;;;;;;;;;;;;;;;17.64;59.92;97297.91;10290791;28;842;-69
2023/10/27 07:10:57;;;;;;;;;;;;;;;17.64;59.96;97294.44;10290472;28;914;-71
2023/10/27 07:15:53;;;;;;;;;;;;;;;17.65;59.57;97299.56;10291227;28;1893;-71
2023/10/27 07:20:49;;;;;;;;;;;;;;;17.69;59.25;97300.19;10290052;28;794;-71
2023/10/27 07:25:45;;;;;;;;;;;;;;;17.68;59.49;97307.25;10289725;28;893;-72
2023/10/27 07:30:41;;;;;;;;;;;;;;;17.66;59.55;97308.34;10288610;28;1290;-72
2023/10/27 07:35:37;;;;;;;;;;;;;;;17.69;59.55;97308.91;10290047;28;1902;-72
2023/10/27 07:40:34;;;;;;;;;;;;;;;17.66;59.82;97309.16;10289218;28;766;-72
2023/10/27 07:45:30;;;;;;;;;;;;;;;17.70;59.67;97301.84;10289525;28;875;-74
2023/10/27 07:50:26;;;;;;;;;;;;;;;17.70;59.70;97309.75;10289020;28;864;-72
2023/10/27 07:55:22;;;;;;;;;;;;;;;17.72;59.77;97303.38;10289370;28;1965;-72
2023/10/27 08:00:18;;;;;;;;;;;;;;;17.73;59.67;97309.47;10288586;28;1004;-71
2023/10/27 08:05:14;;;;;;;;;;;;;;;17.77;59.54;97315.34;10287854;28;960;-77
2023/10/27 08:10:09;;;;;;;;;;;;;;;17.69;59.58;97314.19;10288347;28;981;-77
2023/10/27 08:15:05;;;;;;;;;;;;;;;17.70;59.58;97313.19;10288114;28;1893;-71
2023/10/27 08:20:01;;;;;;;;;;;;;;;17.76;59.17;97309.22;10287893;28;911;-71
2023/10/27 08:24:57;;;;;;;;;;;;;;;17.82;59.31;97313.22;10287750;28;920;-72
2023/10/27 08:29:53;;;;;;;;;;;;;;;17.81;59.46;97314.16;10286593;28;1533;-71
2023/10/27 08:34:49;;;;;;;;;;;;;;;17.82;59.31;97321.13;10287331;28;1914;-71
2023/10/27 08:39:45;;;;;;;;;;;;;;;17.86;59.27;97319.88;10286920;28;829;-71
2023/10/27 08:44:41;;;;;;;;;;;;;;;17.84;59.42;97317.41;10288038;28;801;-72
2023/10/27 08:49:37;;;;;;;;;;;;;;;17.82;59.43;97318.50;10287376;28;845;-68
2023/10/27 08:54:33;;;;;;;;;;;;;;;17.84;59.56;97321.81;10287444;28;1894;-71
2023/10/27 08:59:29;;;;;;;;;;;;;;;17.87;59.19;97316.31;10286346;28;1209;-72
2023/10/27 09:04:25;;;;;;;;;;;;;;;17.13;58.64;97330.09;10286051;28;849;-72
2023/10/27 09:09:21;;;;;;;;;;;;;;;17.34;60.25;97324.91;10285499;28;994;-72
2023/10/27 09:14:20;;;;;;;;;;;;;;;17.27;59.82;97326.38;10286400;28;1910;-71
2023/10/27 09:19:16;;;;;;;;;;;;;;;17.68;58.85;97317.78;10285794;28;1543;-73
2023/10/27 09:24:12;;;;;;;;;;;;;;;17.80;58.65;97326.50;10285483;28;1039;-71
2023/10/27 09:29:07;;;;;;;;;;;;;;;17.85;58.57;97324.34;10285681;28;1115;-73
2023/10/27 09:34:03;;;;;;;;;;;;;;;17.88;58.53;97329.34;10284186;28;1914;-71
2023/10/27 09:39:00;;;;;;;;;;;;;;;17.90;58.70;97329.22;10285609;28;795;-71
2023/10/27 09:43:56;;;;;;;;;;;;;;;17.87;58.62;97327.69;10285897;28;869;-71
2023/10/27 09:48:58;;;;;;;;;;;;;;;17.90;58.63;97323.97;10285353;28;1049;-72
2023/10/27 09:53:53;;;;;;;;;;;;;;;17.95;58.49;97329.69;10283867;28;1893;-72
2023/10/27 09:58:49;;;;;;;;;;;;;;;17.91;58.54;97329.09;10284533;28;1029;-72
2023/10/27 10:03:45;;;;;;;;;;;;;;;17.95;58.61;97319.16;10284446;28;873;-72
2023/10/27 10:08:41;;;;;;;;;;;;;;;17.95;58.70;97324.41;10284718;28;811;-77
2023/10/27 10:13:37;;;;;;;;;;;;;;;17.94;59.04;97333.28;10284271;28;1960;-71
2023/10/27 10:18:33;;;;;;;;;;;;;;;17.93;59.17;97328.97;10283989;28;862;-72
2023/10/27 10:23:29;;;;;;;;;;;;;;;17.97;58.88;97333.00;10284680;28;802;-71
2023/10/27 10:28:25;;;;;;;;;;;;;;;17.98;58.77;97326.78;10283413;28;996;-72
2023/10/27 10:33:22;;;;;;;;;;;;;;;17.96;58.92;97332.19;10284119;28;1993;-71
2023/10/27 10:38:17;;;;;;;;;;;;;;;17.98;58.84;97324.16;10284349;28;851;-72
2023/10/27 10:43:13;;;;;;;;;;;;;;;17.99;58.90;97320.53;10283751;28;800;-72
2023/10/27 10:48:09;;;;;;;;;;;;;;;18.00;58.73;97322.25;10284168;28;823;-71
2023/10/27 10:53:05;;;;;;;;;;;;;;;18.00;59.00;97316.09;10284097;28;1898;-71
2023/10/27 10:58:01;;;;;;;;;;;;;;;18.03;58.97;97329.06;10282857;28;1043;-71
2023/10/27 11:02:57;;;;;;;;;;;;;;;18.02;59.11;97333.47;10285081;28;872;-69
2023/10/27 11:07:53;;;;;;;;;;;;;;;18.01;59.02;97329.16;10290736;28;867;-71
2023/10/27 11:12:48;;;;;;;;;;;;;;;18.01;59.16;97329.16;10290480;28;1894;-71
2023/10/27 11:17:44;;;;;;;;;;;;;;;18.01;58.96;97329.16;10289809;28;996;-71
2023/10/27 11:22:40;;;;;;;;;;;;;;;17.99;59.10;97332.91;10290237;28;843;-75
2023/10/27 11:27:38;;;;;;;;;;;;;;;17.91;59.16;97338.78;10290292;28;886;-75
2023/10/27 11:32:34;;;;;;;;;;;;;;;17.92;59.29;97335.19;10289394;28;1910;-78
2023/10/27 11:37:30;;;;;;;;;;;;;;;17.96;58.97;97336.63;10288943;28;1316;-81
2023/10/27 11:42:26;;;;;;;;;;;;;;;17.92;59.13;97337.81;10289405;28;901;-80
2023/10/27 11:47:24;;;;;;;;;;;;;;;17.95;58.97;97335.78;10289307;28;779;-80
2023/10/27 11:52:21;;;;;;;;;;;;;;;18.03;58.93;97336.97;10288954;28;1894;-77
2023/10/27 11:57:17;;;;;;;;;;;;;;;18.11;58.80;97340.63;10289493;28;886;-78
2023/10/27 12:02:13;;;;;;;;;;;;;;;18.16;58.72;97333.19;10287747;28;818;-75
2023/10/27 12:07:11;;;;;;;;;;;;;;;18.08;58.93;97338.25;10283149;28;908;-75
2023/10/27 12:12:08;;;;;;;;;;;;;;;18.05;58.79;97343.78;10287461;28;2422;-75
2023/10/27 12:17:06;;;;;;;;;;;;;;;17.99;58.76;97346.06;10286824;28;838;-79
2023/10/27 12:22:02;;;;;;;;;;;;;;;17.97;58.69;97346.19;10288575;28;763;-80
2023/10/27 12:26:58;;;;;;;;;;;;;;;17.99;58.49;97343.44;10287872;28;927;-79
2023/10/27 12:31:55;;;;;;;;;;;;;;;18.01;58.55;97357.34;10287616;28;1977;-79
2023/10/27 12:36:51;;;;;;;;;;;;;;;17.96;58.53;97371.72;10287982;28;832;-79
2023/10/27 12:41:47;;;;;;;;;;;;;;;17.94;58.35;97364.91;10287179;28;754;-77
2023/10/27 12:46:44;;;;;;;;;;;;;;;17.95;58.34;97361.31;10286765;28;968;-80
2023/10/27 12:51:40;;;;;;;;;;;;;;;17.93;58.23;97369.34;10287202;28;925;-78
2023/10/27 12:56:36;;;;;;;;;;;;;;;17.93;58.14;97373.78;10286249;28;1898;-79
2023/10/27 13:01:32;;;;;;;;;;;;;;;17.91;58.46;97376.53;10286364;28;753;-79
2023/10/27 13:06:28;;;;;;;;;;;;;;;17.94;58.33;97372.81;10285816;28;818;-79
2023/10/27 13:11:24;;;;;;;;;;;;;;;17.93;58.25;97377.25;10286450;28;854;-79
2023/10/27 13:16:20;;;;;;;;;;;;;;;17.91;58.30;97383.59;10285797;28;1957;-79
2023/10/27 13:21:16;;;;;;;;;;;;;;;17.88;58.53;97381.22;10285429;28;1035;-79
2023/10/27 13:26:12;;;;;;;;;;;;;;;17.99;58.09;97385.59;10284250;28;1074;-79
2023/10/27 13:31:08;;;;;;;;;;;;;;;17.91;58.45;97388.88;10284640;28;1409;-79
2023/10/27 13:36:09;;;;;;;;;;;;;;;17.91;58.19;97387.06;10284961;28;1971;-79
2023/10/27 13:41:05;;;;;;;;;;;;;;;17.88;58.31;97384.69;10284841;28;897;-78
2023/10/27 13:46:01;;;;;;;;;;;;;;;17.84;58.49;97391.19;10284738;28;851;-77
2023/10/27 13:50:57;;;;;;;;;;;;;;;17.75;58.38;97395.34;10284419;28;798;-77
2023/10/27 13:55:53;;;;;;;;;;;;;;;17.74;58.79;97403.38;10284358;28;1957;-77
2023/10/27 14:00:49;;;;;;;;;;;;;;;17.70;58.70;97409.84;10283652;28;817;-78
2023/10/27 14:05:49;;;;;;;;;;;;;;;17.74;58.64;97408.66;10284840;28;814;-79
2023/10/27 14:10:44;;;;;;;;;;;;;;;17.74;58.77;97409.50;10284998;28;861;-80
2023/10/27 14:15:40;;;;;;;;;;;;;;;17.79;58.64;97408.25;10284702;28;1893;-77
2023/10/27 14:20:36;;;;;;;;;;;;;;;17.80;58.70;97412.63;10283995;28;936;-79
2023/10/27 14:25:32;;;;;;;;;;;;;;;17.82;58.71;97402.81;10306810;28;1022;-77
2023/10/27 14:30:28;;;;;;;;;;;;;;;17.78;58.83;97406.59;10323479;28;1356;-78
2023/10/27 14:35:24;;;;;;;;;;;;;;;17.82;58.74;97410.72;10324720;28;1905;-77
2023/10/27 14:40:22;;;;;;;;;;;;;;;17.84;58.79;97419.31;10328545;28;1246;-77
2023/10/27 14:45:18;;;;;;;;;;;;;;;17.83;58.85;97433.44;10332119;28;784;-77
2023/10/27 14:50:14;;;;;;;;;;;;;;;17.86;58.89;97430.56;10331429;28;837;-81
2023/10/27 14:55:11;;;;;;;;;;;;;;;17.91;59.08;97437.13;10331987;28;1886;-78
2023/10/27 15:00:10;;;;;;;;;;;;;;;17.98;59.05;97434.03;10331132;28;810;-77
2023/10/27 15:05:06;;;;;;;;;;;;;;;17.98;59.19;97439.31;10332285;28;873;-76
2023/10/27 15:10:01;;;;;;;;;;;;;;;18.06;58.85;97445.63;10332273;28;858;-76
2023/10/27 15:14:57;;;;;;;;;;;;;;;18.07;58.97;97455.19;10331887;28;1949;-76
2023/10/27 15:19:57;;;;;;;;;;;;;;;17.95;59.17;97453.56;10330762;28;1051;-73
2023/10/27 15:24:52;;;;;;;;;;;;;;;17.85;59.35;97450.00;10289622;28;1076;-74
2023/10/27 15:29:48;;;;;;;;;;;;;;;17.83;59.30;97451.91;10286552;28;1298;-72
2023/10/27 15:34:44;;;;;;;;;;;;;;;17.80;59.16;97452.16;10289210;28;1910;-73
2023/10/27 15:39:40;;;;;;;;;;;;;;;17.77;59.09;97452.38;10289554;28;871;-74
2023/10/27 15:44:36;;;;;;;;;;;;;;;17.77;59.05;97453.19;10289274;28;837;-73
2023/10/27 15:49:32;;;;;;;;;;;;;;;17.78;59.00;97448.75;10287142;28;823;-73
2023/10/27 15:54:28;;;;;;;;;;;;;;;18.06;58.62;97444.78;10289061;28;1890;-76
2023/10/27 15:59:24;;;;;;;;;;;;;;;18.18;58.59;97454.31;10288233;28;777;-74
2023/10/27 16:04:21;;;;;;;;;;;;;;;18.21;58.60;97450.59;10289188;28;883;-73
2023/10/27 16:09:17;;;;;;;;;;;;;;;18.21;58.54;97458.50;10288708;28;877;-74
2023/10/27 16:14:12;;;;;;;;;;;;;;;18.25;58.76;97467.84;10288595;28;1898;-74
2023/10/27 16:19:09;;;;;;;;;;;;;;;18.18;58.63;97463.09;10287847;28;830;-73
2023/10/27 16:24:04;;;;;;;;;;;;;;;18.23;58.67;97464.50;10288316;28;856;-73
2023/10/27 16:29:00;;;;;;;;;;;;;;;18.30;58.57;97455.13;10286887;28;1243;-71
2023/10/27 16:33:56;;;;;;;;;;;;;;;18.36;58.50;97467.81;10287243;28;1910;-72
2023/10/27 16:38:52;;;;;;;;;;;;;;;18.31;58.55;97468.19;10296025;28;1037;-73
2023/10/27 16:43:48;;;;;;;;;;;;;;;18.36;58.33;97475.72;10327499;28;893;-77
2023/10/27 16:48:44;;;;;;;;;;;;;;;18.43;58.11;97484.81;10327018;28;759;-76
2023/10/27 16:53:40;;;;;;;;;;;;;;;18.41;58.18;97492.00;10327155;28;1893;-72
2023/10/27 16:58:36;;;;;;;;;;;;;;;18.45;57.97;97505.81;10326674;28;1532;-72
2023/10/27 17:03:33;;;;;;;;;;;;;;;18.29;58.48;97508.84;10302982;28;999;-72
2023/10/27 17:08:29;;;;;;;;;;;;;;;18.24;58.39;97511.84;10285775;28;848;-71
2023/10/27 17:13:28;;;;;;;;;;;;;;;18.26;58.67;97523.13;10285272;28;1894;-72
2023/10/27 17:18:24;;;;;;;;;;;;;;;18.23;58.76;97520.69;10285349;28;787;-72
2023/10/27 17:23:20;;;;;;;;;;;;;;;18.25;58.51;97529.34;10284549;28;898;-72
2023/10/27 17:28:16;;;;;;;;;;;;;;;18.22;58.75;97534.84;10284617;28;882;-72
2023/10/27 17:33:12;;;;;;;;;;;;;;;18.24;58.63;97540.03;10285028;28;1985;-73
2023/10/27 17:38:08;;;;;;;;;;;;;;;18.25;58.33;97541.69;10284814;28;762;-72
2023/10/27 17:43:04;;;;;;;;;;;;;;;18.28;58.33;97551.97;10285293;28;861;-73
2023/10/27 17:48:00;;;;;;;;;;;;;;;18.27;58.58;97548.50;10284672;28;890;-73
2023/10/27 17:52:57;;;;;;;;;;;;;;;18.31;58.26;97559.66;10284287;28;1956;-75
2023/10/27 17:57:53;;;;;;;;;;;;;;;18.29;58.35;97551.03;10284588;28;873;-74
2023/10/27 18:02:49;;;;;;;;;;;;;;;18.28;58.53;97557.25;10283787;28;1191;-73
2023/10/27 18:07:45;;;;;;;;;;;;;;;18.30;58.62;97556.16;10284907;28;961;-74
2023/10/27 18:12:41;;;;;;;;;;;;;;;18.30;58.51;97557.97;10286150;28;1890;-74
2023/10/27 18:17:37;;;;;;;;;;;;;;;18.29;58.52;97553.69;10292800;28;877;-74
2023/10/27 18:22:33;;;;;;;;;;;;;;;18.28;58.60;97562.53;10292649;28;826;-74
2023/10/27 18:27:29;;;;;;;;;;;;;;;18.26;58.60;97564.44;10292622;28;971;-74
2023/10/27 18:32:28;;;;;;;;;;;;;;;18.32;58.33;97570.09;10325267;28;1981;-74
2023/10/27 18:37:24;;;;;;;;;;;;;;;18.30;58.36;97568.53;10332254;28;898;-74
2023/10/27 18:42:20;;;;;;;;;;;;;;;18.29;58.63;97583.53;10331944;28;1033;-74
2023/10/27 18:47:17;;;;;;;;;;;;;;;18.32;58.42;97574.53;10331717;28;814;-75
2023/10/27 18:52:13;;;;;;;;;;;;;;;18.31;58.60;97580.75;10331847;28;1981;-75
2023/10/27 18:57:09;;;;;;;;;;;;;;;18.29;58.44;97585.31;10332669;28;841;-74
2023/10/27 19:02:06;;;;;;;;;;;;;;;18.29;58.39;97593.22;10331567;28;866;-74
2023/10/27 19:07:03;;;;;;;;;;;;;;;18.33;58.14;97592.84;10331554;28;878;-74
2023/10/27 19:11:59;;;;;;;;;;;;;;;18.31;58.43;97588.66;10331770;28;1009;-75
2023/10/27 19:16:55;;;;;;;;;;;;;;;18.31;58.32;97593.94;10330981;28;1890;-74
2023/10/27 19:21:51;;;;;;;;;;;;;;;18.33;58.17;97599.94;10331177;28;860;-74
2023/10/27 19:26:47;;;;;;;;;;;;;;;18.36;58.25;97602.31;10330672;28;878;-74
2023/10/27 19:31:46;;;;;;;;;;;;;;;18.33;58.22;97607.84;10329974;28;1278;-74
2023/10/27 19:36:42;;;;;;;;;;;;;;;18.34;58.04;97614.81;10330977;28;1975;-75
2023/10/27 19:41:39;;;;;;;;;;;;;;;18.27;58.21;97616.25;10330027;28;909;-75
2023/10/27 19:46:35;;;;;;;;;;;;;;;18.25;58.55;97629.53;10330078;28;842;-75
2023/10/27 19:51:31;;;;;;;;;;;;;;;18.20;58.60;97639.59;10329443;28;925;-79
2023/10/27 19:56:26;;;;;;;;;;;;;;;18.12;58.59;97634.94;10329758;28;1890;-79
2023/10/27 20:01:22;;;;;;;;;;;;;;;18.09;58.75;97645.72;10329643;28;830;-79
2023/10/27 20:06:18;;;;;;;;;;;;;;;18.06;58.60;97645.97;10329430;28;917;-76
2023/10/27 20:11:16;;;;;;;;;;;;;;;18.07;58.63;97647.63;10329074;28;875;-76
2023/10/27 20:16:13;;;;;;;;;;;;;;;18.04;58.72;97647.03;10328951;28;1957;-76
2023/10/27 20:21:09;;;;;;;;;;;;;;;18.05;58.68;97651.34;10328698;28;921;-75
2023/10/27 20:26:05;;;;;;;;;;;;;;;18.04;58.92;97652.31;10329255;28;806;-76
2023/10/27 20:31:01;;;;;;;;;;;;;;;18.04;58.65;97650.50;10328539;28;1135;-76
2023/10/27 20:35:57;;;;;;;;;;;;;;;18.05;58.90;97654.84;10328228;28;1959;-75
2023/10/27 20:40:52;;;;;;;;;;;;;;;18.07;58.87;97650.28;10328092;28;1002;-75
2023/10/27 20:45:48;;;;;;;;;;;;;;;18.09;58.87;97647.53;10328435;28;872;-75
2023/10/27 20:50:44;;;;;;;;;;;;;;;18.13;58.69;97654.22;10328350;28;978;-77
2023/10/27 20:55:40;;;;;;;;;;;;;;;18.14;58.77;97661.19;10327086;28;1898;-75
2023/10/27 21:00:36;;;;;;;;;;;;;;;18.09;58.96;97653.63;10327836;28;827;-78
2023/10/27 21:05:32;;;;;;;;;;;;;;;18.05;58.87;97662.75;10327002;28;865;-76
2023/10/27 21:10:29;;;;;;;;;;;;;;;17.99;59.24;97671.13;10327152;28;878;-77
2023/10/27 21:15:25;;;;;;;;;;;;;;;17.98;59.11;97673.88;10326722;28;1901;-76
2023/10/27 21:20:21;;;;;;;;;;;;;;;17.97;58.89;97683.56;10327132;28;806;-77
2023/10/27 21:25:16;;;;;;;;;;;;;;;17.94;58.48;97679.38;10326965;28;794;-77
2023/10/27 21:30:12;;;;;;;;;;;;;;;17.91;58.69;97686.69;10326644;28;1355;-78
2023/10/27 21:35:11;;;;;;;;;;;;;;;17.93;58.74;97687.41;10326262;28;1914;-77
2023/10/27 21:40:07;;;;;;;;;;;;;;;17.84;58.85;97686.34;10325901;28;770;-78
2023/10/27 21:45:03;;;;;;;;;;;;;;;17.81;58.95;97696.25;10326043;28;881;-78
2023/10/27 21:49:59;;;;;;;;;;;;;;;17.78;59.03;97704.34;10325538;28;1087;-77
2023/10/27 21:54:55;;;;;;;;;;;;;;;17.74;58.94;97696.69;10325521;28;1897;-77
2023/10/27 21:59:51;;;;;;;;;;;;;;;17.74;59.06;97701.97;10326682;28;837;-77
2023/10/27 22:04:47;;;;;;;;;;;;;;;17.69;59.32;97698.81;10325358;28;936;-77
2023/10/27 22:09:44;;;;;;;;;;;;;;;17.67;59.09;97698.09;10325878;28;839;-77
2023/10/27 22:14:40;;;;;;;;;;;;;;;17.65;59.24;97694.72;10325019;28;1898;-77
2023/10/27 22:19:36;;;;;;;;;;;;;;;17.64;59.38;97708.88;10325672;28;1043;-77
2023/10/27 22:24:32;;;;;;;;;;;;;;;17.61;59.38;97701.22;10325026;28;901;-77
2023/10/27 22:29:28;;;;;;;;;;;;;;;17.58;59.32;97714.63;10325252;28;1604;-76
2023/10/27 22:34:24;;;;;;;;;;;;;;;17.56;59.37;97716.50;10325318;28;1921;-76
2023/10/27 22:39:20;;;;;;;;;;;;;;;17.53;59.44;97719.38;10325263;28;896;-76
2023/10/27 22:44:16;;;;;;;;;;;;;;;17.50;59.47;97714.31;10324036;28;931;-76
2023/10/27 22:49:12;;;;;;;;;;;;;;;17.49;59.43;97716.13;10324532;28;799;-77
2023/10/27 22:54:08;;;;;;;;;;;;;;;17.46;59.41;97715.50;10325384;28;1902;-76
2023/10/27 22:59:04;;;;;;;;;;;;;;;17.45;59.47;97719.13;10327058;28;863;-76
2023/10/27 23:04:00;;;;;;;;;;;;;;;17.43;59.57;97719.22;10331796;28;941;-76
2023/10/27 23:08:56;;;;;;;;;;;;;;;17.40;59.48;97719.44;10331669;28;791;-76
2023/10/27 23:13:52;;;;;;;;;;;;;;;17.39;59.48;97720.38;10331992;28;1897;-76
2023/10/27 23:18:48;;;;;;;;;;;;;;;17.37;59.55;97717.03;10331275;28;890;-76
2023/10/27 23:23:44;;;;;;;;;;;;;;;17.36;59.63;97722.41;10331133;28;952;-77
2023/10/27 23:28:40;;;;;;;;;;;;;;;17.33;59.56;97725.28;10331589;28;781;-76
2023/10/27 23:33:38;;;;;;;;;;;;;;;17.34;59.62;97729.56;10330418;28;1922;-76
2023/10/27 23:38:35;;;;;;;;;;;;;;;17.31;59.65;97717.47;10331175;28;805;-77
2023/10/27 23:43:31;;;;;;;;;;;;;;;17.28;59.73;97720.34;10330316;28;973;-76
2023/10/27 23:48:30;;;;;;;;;;;;;;;17.28;59.63;97722.97;10330266;28;865;-76
2023/10/27 23:53:30;;;;;;;;;;;;;;;17.25;59.68;97716.13;10330851;28;1902;-76
2023/10/27 23:58:26;;;;;;;;;;;;;;;17.24;59.75;97725.00;10330177;28;818;-77
